Time;durP1;ratioP1;P1;durP2;ratioP2;P2;SDS_P1;SDS_P2;PMS_P1;PMS_P2;Temp;Humidity;BMP_temperature;BMP_pressure;BME280_temperature;BME280_humidity;BME280_pressure;Samples;Min_cycle;Max_cycle;Signal;HPM_P1;HPM_P2
2021/06/21 00:02:29;;;;;;;21.60;5.23;;;16.00;99.90;;;;;;21083272;28;20043;-76
2021/06/21 00:12:31;;;;;;;22.30;6.87;;;16.00;99.90;;;;;;21081244;28;20539;-76
2021/06/21 00:22:32;;;;;;;19.23;8.37;;;15.90;99.90;;;;;;21082155;28;20062;-77
2021/06/21 00:32:33;;;;;;;30.50;9.77;;;15.90;99.90;;;;;;21062809;28;20044;-77
2021/06/21 00:42:34;;;;;;;25.93;10.97;;;15.80;99.90;;;;;;21061883;28;20040;-77
2021/06/21 00:52:35;;;;;;;;;;;15.80;99.90;;;;;;21079649;28;20097;-76
2021/06/21 01:02:37;;;;;;;20.95;7.55;;;15.90;99.90;;;;;;21078313;28;19912;-76
2021/06/21 01:13:16;;;;;;;15.45;6.57;;;16.10;99.90;;;;;;21078021;28;20035;-76
2021/06/21 01:23:54;;;;;;;23.00;5.57;;;16.10;99.90;;;;;;21058482;28;20044;-76
2021/06/21 01:33:56;;;;;;;14.73;4.93;;;16.10;99.90;;;;;;21076070;28;20039;-76
2021/06/21 01:43:58;;;;;;;20.87;5.47;;;16.00;99.90;;;;;;21075493;28;20069;-76
2021/06/21 01:54:01;;;;;;;15.43;4.47;;;15.90;99.90;;;;;;21074723;28;20502;-76
2021/06/21 02:04:06;;;;;;;24.35;5.53;;;15.90;99.90;;;;;;21074313;28;20044;-76
2021/06/21 02:14:07;;;;;;;12.18;5.10;;;15.80;99.90;;;;;;21073940;28;20513;-76
2021/06/21 02:24:08;;;;;;;23.30;7.73;;;15.80;99.90;;;;;;21073411;28;20048;-77
2021/06/21 02:34:10;;;;;;;27.50;9.00;;;15.70;99.90;;;;;;21080796;28;20067;-76
2021/06/21 02:44:11;;;;;;;18.90;8.10;;;15.80;99.90;;;;;;21071444;28;20040;-76
2021/06/21 02:54:31;;;;;;;25.27;8.53;;;15.80;99.90;;;;;;21088852;28;20802;-76
2021/06/21 03:04:37;;;;;;;22.17;8.35;;;15.90;99.90;;;;;;21087930;28;20123;-77
2021/06/21 03:14:46;;;;;;;19.25;8.32;;;16.00;99.90;;;;;;21087280;28;20036;-77
2021/06/21 03:24:54;;;;;;;21.08;8.23;;;16.00;99.90;;;;;;21086268;28;20054;-77
2021/06/21 03:34:57;;;;;;;18.42;8.80;;;16.00;99.90;;;;;;21085023;28;20040;-79
2021/06/21 03:44:58;;;;;;;25.83;9.50;;;16.00;99.90;;;;;;21084536;28;20044;-77
2021/06/21 03:55:08;;;;;;;23.30;9.50;;;15.80;99.90;;;;;;21049250;28;20040;-77
2021/06/21 04:05:10;;;;;;;23.98;11.02;;;15.80;99.90;;;;;;21079997;28;20044;-76
2021/06/21 04:15:12;;;;;;;28.92;10.65;;;15.70;99.90;;;;;;21063787;28;20036;-77
2021/06/21 04:25:15;;;;;;;22.35;9.77;;;15.70;99.90;;;;;;21081309;28;20043;-77
2021/06/21 04:35:18;;;;;;;18.88;8.25;;;15.90;99.90;;;;;;21071291;28;20044;-76
2021/06/21 04:45:19;;;;;;;17.77;5.13;;;16.00;99.90;;;;;;21059764;28;20438;-75
2021/06/21 04:55:23;;;;;;;16.23;4.03;;;16.40;99.90;;;;;;21056725;28;20024;-75
2021/06/21 05:05:24;;;;;;;10.90;3.42;;;16.70;99.90;;;;;;21072004;28;20534;-75
2021/06/21 05:15:25;;;;;;;8.77;2.20;;;17.20;99.90;;;;;;21075572;28;20032;-74
2021/06/21 05:25:26;;;;;;;8.37;3.40;;;17.50;99.90;;;;;;21074503;28;20439;-75
2021/06/21 05:35:26;;;;;;;8.30;3.57;;;17.70;99.90;;;;;;21074370;28;20054;-75
2021/06/21 05:45:27;;;;;;;14.63;3.97;;;17.60;99.90;;;;;;21063177;28;20093;-75
2021/06/21 05:55:28;;;;;;;11.93;3.73;;;17.60;99.90;;;;;;21053504;28;20109;-76
2021/06/21 06:05:29;;;;;;;7.87;2.20;;;17.50;99.90;;;;;;21072757;28;20028;-76
2021/06/21 06:15:30;;;;;;;11.13;2.93;;;17.70;99.90;;;;;;21073521;28;20107;-77
2021/06/21 06:25:32;;;;;;;10.10;1.80;;;18.50;99.90;;;;;;21077255;28;20144;-77
2021/06/21 06:35:33;;;;;;;;;;;19.40;99.90;;;;;;21078601;28;20032;-77
2021/06/21 06:45:34;;;;;;;15.20;1.93;;;19.80;99.90;;;;;;21057889;28;19914;-77
2021/06/21 07:05:54;;;;;;;12.48;2.28;;;19.70;99.90;;;;;;21074269;28;20041;-76
2021/06/21 07:15:55;;;;;;;5.07;1.57;;;20.00;99.90;;;;;;21054369;28;20107;-76
2021/06/21 07:25:56;;;;;;;9.83;1.90;;;20.70;99.90;;;;;;21068624;28;20047;-76
2021/06/21 07:35:58;;;;;;;13.40;1.70;;;21.80;99.90;;;;;;21085595;28;20050;-77
2021/06/21 07:45:58;;;;;;;4.90;1.20;;;22.00;99.90;;;;;;21085331;28;20545;-76
2021/06/21 07:55:59;;;;;;;4.23;1.23;;;22.20;99.90;;;;;;21083625;28;20252;-77
2021/06/21 08:06:03;;;;;;;7.10;1.10;;;23.30;99.90;;;;;;21083544;28;20044;-76
2021/06/21 08:16:04;;;;;;;5.50;1.27;;;23.50;99.90;;;;;;21082085;28;20086;-76
2021/06/21 08:26:05;;;;;;;4.10;1.25;;;24.50;99.90;;;;;;21046692;28;20071;-76
2021/06/21 08:36:06;;;;;;;7.87;1.90;;;23.80;99.90;;;;;;21044948;28;20036;-76
2021/06/21 08:46:07;;;;;;;6.00;1.40;;;24.40;99.90;;;;;;21080190;28;20122;-76
2021/06/21 08:56:10;;;;;;;;;;;25.10;99.90;;;;;;21061154;28;20481;-77
2021/06/21 09:06:22;;;;;;;6.25;1.23;;;24.90;99.90;;;;;;21077775;28;19998;-77
2021/06/21 09:16:42;;;;;;;5.88;1.27;;;25.20;99.90;;;;;;21075365;28;20087;-77
2021/06/21 09:26:44;;;;;;;8.98;1.67;;;26.20;99.90;;;;;;21076877;28;20059;-77
2021/06/21 09:36:46;;;;;;;5.18;1.30;;;25.90;99.90;;;;;;21061328;28;20040;-78
2021/06/21 09:46:46;;;;;;;2.92;1.40;;;27.10;99.90;;;;;;21075799;28;20044;-76
2021/06/21 09:56:50;;;;;;;4.80;1.52;;;26.70;99.90;;;;;;20973058;28;20132;-77
2021/06/21 10:06:51;;;;;;;5.68;1.20;;;26.70;99.90;;;;;;20990751;28;20044;-76
2021/06/21 10:16:53;;;;;;;6.07;1.35;;;27.00;99.90;;;;;;20977499;28;20572;-77
2021/06/21 10:26:53;;;;;;;3.70;1.02;;;27.90;99.90;;;;;;20993620;28;20048;-77
2021/06/21 10:36:56;;;;;;;8.13;1.40;;;26.80;99.90;;;;;;21074230;28;20470;-76
2021/06/21 10:47:27;;;;;;;5.32;1.50;;;27.50;99.90;;;;;;20988895;28;20410;-77
2021/06/21 10:57:36;;;;;;;6.63;1.07;;;28.50;99.90;;;;;;21083438;28;20115;-77
2021/06/21 11:07:37;;;;;;;6.75;0.95;;;27.50;99.90;;;;;;21088093;28;20074;-76
2021/06/21 11:17:50;;;;;;;6.13;0.95;;;28.10;99.90;;;;;;21069227;28;20177;-77
2021/06/21 11:27:52;;;;;;;4.55;1.10;;;28.00;99.90;;;;;;21068038;28;20048;-77
2021/06/21 11:37:52;;;;;;;4.40;1.00;;;28.30;99.90;;;;;;21067872;28;20089;-77
2021/06/21 11:47:54;;;;;;;8.80;1.33;;;28.30;99.90;;;;;;21070761;28;20063;-77
2021/06/21 11:57:57;;;;;;;5.90;1.23;;;29.10;99.90;;;;;;21053780;28;20036;-78
2021/06/21 12:07:58;;;;;;;2.25;0.55;;;28.30;99.90;;;;;;21089243;28;20044;-77
2021/06/21 12:17:59;;;;;;;4.60;0.85;;;28.30;99.90;;;;;;21089445;28;20036;-78
2021/06/21 12:28:25;;;;;;;3.65;0.77;;;29.20;99.90;;;;;;21087158;28;20040;-77
2021/06/21 12:38:26;;;;;;;8.40;1.10;;;28.70;99.90;;;;;;21082423;28;20036;-78
2021/06/21 12:48:27;;;;;;;2.22;0.50;;;28.80;99.90;;;;;;21087035;28;20028;-78
2021/06/21 12:58:32;;;;;;;3.40;0.90;;;28.00;99.90;;;;;;21089413;28;20059;-78
2021/06/21 13:08:38;;;;;;;3.90;0.70;;;28.70;99.90;;;;;;21074151;28;20086;-78
2021/06/21 13:18:57;;;;;;;3.15;0.80;;;28.60;99.90;;;;;;21090395;28;20046;-78
2021/06/21 13:28:58;;;;;;;1.75;0.82;;;28.80;99.90;;;;;;21082587;28;20093;-77
2021/06/21 13:39:01;;;;;;;1.02;0.68;;;28.70;99.90;;;;;;21079094;28;20491;-77
2021/06/21 13:49:07;;;;;;;5.47;0.75;;;28.20;99.90;;;;;;21077331;28;20035;-77
2021/06/21 13:59:14;;;;;;;2.58;0.60;;;28.70;99.90;;;;;;21059336;28;20575;-77
2021/06/21 14:09:17;;;;;;;4.82;0.80;;;28.30;99.90;;;;;;21056956;28;20036;-77
2021/06/21 14:19:18;;;;;;;1.10;0.70;;;28.20;99.90;;;;;;21080075;28;20216;-77
2021/06/21 14:29:19;;;;;;;2.03;0.82;;;28.00;99.90;;;;;;21048322;28;20059;-77
2021/06/21 14:39:21;;;;;;;1.40;0.60;;;28.70;99.90;;;;;;21074978;28;20044;-76
2021/06/21 14:49:21;;;;;;;0.93;0.73;;;28.80;99.90;;;;;;21071700;28;20036;-76
2021/06/21 14:59:22;;;;;;;3.97;0.75;;;29.20;99.90;;;;;;21069043;28;20047;-76
2021/06/21 15:09:23;;;;;;;0.80;0.60;;;28.50;99.90;;;;;;21082496;28;20513;-77
2021/06/21 15:19:24;;;;;;;4.22;1.25;;;27.70;99.90;;;;;;21059169;28;20130;-77
2021/06/21 15:29:26;;;;;;;2.90;0.82;;;27.60;99.90;;;;;;21059241;28;20140;-77
2021/06/21 15:39:27;;;;;;;3.38;0.80;;;26.50;99.90;;;;;;21045818;28;20491;-77
2021/06/21 15:49:28;;;;;;;;;;;25.80;99.90;;;;;;21048112;28;20039;-76
2021/06/21 15:59:28;;;;;;;2.65;0.90;;;24.10;99.90;;;;;;21045749;28;20459;-76
2021/06/21 16:09:29;;;;;;;2.83;0.93;;;22.50;99.90;;;;;;21048670;28;20048;-77
2021/06/21 16:19:30;;;;;;;2.07;0.83;;;22.60;99.90;;;;;;21131555;28;20040;-77
2021/06/21 16:29:31;;;;;;;5.03;1.13;;;21.40;99.90;;;;;;21129602;28;20044;-77
2021/06/21 16:39:32;;;;;;;8.17;1.17;;;21.20;99.90;;;;;;21148621;28;20039;-78
2021/06/21 16:49:34;;;;;;;6.23;1.90;;;20.10;99.90;;;;;;21134491;28;20555;-78
2021/06/21 16:59:35;;;;;;;5.40;1.50;;;19.50;99.90;;;;;;21146113;28;20045;-76
2021/06/21 17:09:35;;;;;;;7.07;2.57;;;18.50;99.90;;;;;;21142991;28;20458;-77
2021/06/21 17:19:37;;;;;;;12.53;2.10;;;19.30;99.90;;;;;;21132123;28;20032;-80
2021/06/21 17:29:38;;;;;;;5.17;1.90;;;20.00;99.90;;;;;;20972024;28;20059;-78
2021/06/21 17:39:39;;;;;;;7.40;1.63;;;20.30;99.90;;;;;;20971958;28;20469;-79
2021/06/21 17:49:40;;;;;;;6.43;2.50;;;19.70;99.90;;;;;;20998896;28;20036;-78
2021/06/21 17:59:41;;;;;;;10.57;2.60;;;19.10;99.90;;;;;;21050360;28;20044;-78
2021/06/21 18:09:41;;;;;;;10.63;2.40;;;18.70;99.90;;;;;;21069324;28;20036;-77
2021/06/21 18:19:42;;;;;;;6.47;2.17;;;18.90;99.90;;;;;;21026096;28;20039;-77
2021/06/21 18:29:43;;;;;;;7.17;1.90;;;19.10;99.90;;;;;;21063751;28;20036;-80
2021/06/21 18:39:44;;;;;;;10.13;2.93;;;19.20;99.90;;;;;;21066123;28;20557;-82
2021/06/21 18:49:45;;;;;;;5.70;2.50;;;19.00;99.90;;;;;;21072103;28;20042;-81
2021/06/21 18:59:46;;;;;;;4.67;2.30;;;18.80;99.90;;;;;;21044849;28;20123;-81
2021/06/21 19:09:47;;;;;;;8.23;2.67;;;19.20;99.90;;;;;;21053473;28;20089;-80
2021/06/21 19:19:48;;;;;;;10.37;3.33;;;18.70;99.90;;;;;;21060947;28;20044;-79
2021/06/21 19:29:49;;;;;;;7.63;3.30;;;18.40;99.90;;;;;;21091783;28;20059;-79
2021/06/21 19:39:50;;;;;;;9.43;3.40;;;18.40;99.90;;;;;;21105958;28;20040;-78
2021/06/21 19:49:50;;;;;;;19.87;3.80;;;18.00;99.90;;;;;;21112988;28;20127;-79
2021/06/21 19:59:52;;;;;;;5.80;3.70;;;18.30;99.90;;;;;;21106751;28;20030;-78
2021/06/21 20:09:53;;;;;;;6.75;2.70;;;18.20;99.90;;;;;;21118836;28;20054;-78
2021/06/21 20:19:54;;;;;;;6.47;2.47;;;18.30;99.90;;;;;;21104451;28;20470;-78
2021/06/21 20:29:55;;;;;;;5.47;2.23;;;18.30;99.90;;;;;;21085984;28;20044;-79
2021/06/21 20:39:56;;;;;;;11.57;4.37;;;18.30;99.90;;;;;;21092250;28;20040;-79
2021/06/21 20:49:57;;;;;;;8.43;4.20;;;17.40;99.90;;;;;;21066092;28;20083;-75
2021/06/21 20:59:57;;;;;;;12.40;5.50;;;17.40;99.90;;;;;;21043115;28;20047;-77
2021/06/21 21:09:58;;;;;;;9.30;4.37;;;17.50;99.90;;;;;;21036147;28;20044;-76
2021/06/21 21:19:59;;;;;;;7.50;2.40;;;17.50;99.90;;;;;;21072456;28;20047;-77
2021/06/21 21:30:00;;;;;;;7.93;2.57;;;17.40;99.90;;;;;;21075371;28;20036;-77
2021/06/21 21:40:01;;;;;;;6.87;2.27;;;17.30;99.90;;;;;;21074464;28;20028;-77
2021/06/21 21:50:04;;;;;;;4.73;2.30;;;17.50;99.90;;;;;;21074289;28;20036;-77
2021/06/21 22:00:06;;;;;;;5.63;2.80;;;17.40;99.90;;;;;;21055934;28;20040;-77
2021/06/21 22:10:07;;;;;;;;;;;17.50;99.90;;;;;;21073470;28;20058;-77
2021/06/21 22:20:11;;;;;;;7.32;3.05;;;17.50;99.90;;;;;;21054432;28;19908;-77
2021/06/21 22:30:15;;;;;;;8.77;2.65;;;17.30;99.90;;;;;;21054173;28;20037;-77
2021/06/21 22:40:17;;;;;;;6.45;2.42;;;17.10;99.90;;;;;;21055075;28;20055;-77
2021/06/21 22:50:19;;;;;;;5.68;2.35;;;16.90;99.90;;;;;;21077071;28;20040;-77
2021/06/21 23:00:24;;;;;;;6.10;2.47;;;16.70;99.90;;;;;;21088818;28;20066;-77
2021/06/21 23:10:26;;;;;;;7.60;3.03;;;16.70;99.90;;;;;;21088204;28;20035;-78
2021/06/21 23:20:28;;;;;;;9.50;3.33;;;16.50;99.90;;;;;;21087365;28;20047;-77
2021/06/21 23:30:29;;;;;;;7.13;2.67;;;16.50;99.90;;;;;;21086606;28;20036;-77
2021/06/21 23:40:33;;;;;;;6.82;2.80;;;16.40;99.90;;;;;;21085830;28;20085;-77
2021/06/21 23:50:34;;;;;;;6.90;2.83;;;16.30;99.90;;;;;;21066819;28;20048;-77
